sensor_id;sensor_type;location;lat;lon;timestamp;temperature;humidity
8684;DHT22;4379;59.744;18.206;2022-08-01T00:00:09;15.70;99.90
8684;DHT22;4379;59.744;18.206;2022-08-01T00:02:37;15.70;99.90
8684;DHT22;4379;59.744;18.206;2022-08-01T00:05:07;15.60;99.90
8684;DHT22;4379;59.744;18.206;2022-08-01T00:07:35;15.60;99.90
8684;DHT22;4379;59.744;18.206;2022-08-01T00:10:04;15.60;99.90
8684;DHT22;4379;59.744;18.206;2022-08-01T00:12:31;15.60;99.90
8684;DHT22;4379;59.744;18.206;2022-08-01T00:14:59;15.60;99.90
8684;DHT22;4379;59.744;18.206;2022-08-01T00:17:26;15.60;99.90
8684;DHT22;4379;59.744;18.206;2022-08-01T00:19:54;15.50;99.90
8684;DHT22;4379;59.744;18.206;2022-08-01T00:22:22;15.50;99.90
8684;DHT22;4379;59.744;18.206;2022-08-01T00:24:49;15.50;99.90
8684;DHT22;4379;59.744;18.206;2022-08-01T00:27:17;15.50;99.90
8684;DHT22;4379;59.744;18.206;2022-08-01T00:29:44;15.40;99.90
8684;DHT22;4379;59.744;18.206;2022-08-01T00:32:32;15.20;99.90
8684;DHT22;4379;59.744;18.206;2022-08-01T00:35:00;15.20;99.90
8684;DHT22;4379;59.744;18.206;2022-08-01T00:37:27;15.10;99.90
8684;DHT22;4379;59.744;18.206;2022-08-01T00:39:54;15.00;99.90
8684;DHT22;4379;59.744;18.206;2022-08-01T00:42:22;14.90;99.90
8684;DHT22;4379;59.744;18.206;2022-08-01T00:44:49;14.90;99.90
8684;DHT22;4379;59.744;18.206;2022-08-01T00:47:17;14.80;99.90
8684;DHT22;4379;59.744;18.206;2022-08-01T00:49:44;14.70;99.90
8684;DHT22;4379;59.744;18.206;2022-08-01T00:52:12;14.70;99.90
8684;DHT22;4379;59.744;18.206;2022-08-01T00:54:40;14.60;99.90
8684;DHT22;4379;59.744;18.206;2022-08-01T00:57:08;14.60;99.90
8684;DHT22;4379;59.744;18.206;2022-08-01T00:59:37;14.50;99.90
8684;DHT22;4379;59.744;18.206;2022-08-01T01:02:07;14.40;99.90
8684;DHT22;4379;59.744;18.206;2022-08-01T01:04:42;14.40;99.90
8684;DHT22;4379;59.744;18.206;2022-08-01T01:07:20;14.30;99.90
8684;DHT22;4379;59.744;18.206;2022-08-01T01:10:19;14.20;99.90
8684;DHT22;4379;59.744;18.206;2022-08-01T01:13:11;14.10;99.90
8684;DHT22;4379;59.744;18.206;2022-08-01T01:18:14;13.90;99.90
8684;DHT22;4379;59.744;18.206;2022-08-01T01:20:49;13.70;99.90
8684;DHT22;4379;59.744;18.206;2022-08-01T01:23:38;13.70;99.90
8684;DHT22;4379;59.744;18.206;2022-08-01T01:26:31;13.50;99.90
8684;DHT22;4379;59.744;18.206;2022-08-01T01:34:42;13.10;99.90
8684;DHT22;4379;59.744;18.206;2022-08-01T01:37:23;13.10;99.90
8684;DHT22;4379;59.744;18.206;2022-08-01T01:39:53;13.00;99.90
8684;DHT22;4379;59.744;18.206;2022-08-01T01:42:23;12.90;99.90
8684;DHT22;4379;59.744;18.206;2022-08-01T01:44:53;12.80;99.90
8684;DHT22;4379;59.744;18.206;2022-08-01T01:47:23;12.70;99.90
8684;DHT22;4379;59.744;18.206;2022-08-01T01:49:52;12.70;99.90
8684;DHT22;4379;59.744;18.206;2022-08-01T01:52:21;12.60;99.90
8684;DHT22;4379;59.744;18.206;2022-08-01T01:54:52;12.60;99.90
8684;DHT22;4379;59.744;18.206;2022-08-01T01:57:20;12.50;99.90
8684;DHT22;4379;59.744;18.206;2022-08-01T01:59:50;12.50;99.90
8684;DHT22;4379;59.744;18.206;2022-08-01T02:02:22;12.50;99.90
8684;DHT22;4379;59.744;18.206;2022-08-01T02:04:51;12.50;99.90
8684;DHT22;4379;59.744;18.206;2022-08-01T02:07:22;12.40;99.90
8684;DHT22;4379;59.744;18.206;2022-08-01T02:09:52;12.30;99.90
8684;DHT22;4379;59.744;18.206;2022-08-01T02:12:21;12.20;99.90
8684;DHT22;4379;59.744;18.206;2022-08-01T02:14:50;12.10;99.90
8684;DHT22;4379;59.744;18.206;2022-08-01T02:17:20;12.10;99.90
8684;DHT22;4379;59.744;18.206;2022-08-01T02:19:48;12.10;99.90
8684;DHT22;4379;59.744;18.206;2022-08-01T02:25:00;12.10;99.90
8684;DHT22;4379;59.744;18.206;2022-08-01T02:27:40;12.10;99.90
8684;DHT22;4379;59.744;18.206;2022-08-01T02:30:12;12.00;99.90
8684;DHT22;4379;59.744;18.206;2022-08-01T02:35:29;12.10;99.90
8684;DHT22;4379;59.744;18.206;2022-08-01T02:37:58;12.00;99.90
8684;DHT22;4379;59.744;18.206;2022-08-01T02:40:31;12.10;99.90
8684;DHT22;4379;59.744;18.206;2022-08-01T02:43:02;12.00;99.90
8684;DHT22;4379;59.744;18.206;2022-08-01T02:45:31;12.10;99.90
8684;DHT22;4379;59.744;18.206;2022-08-01T02:48:10;12.10;99.90
8684;DHT22;4379;59.744;18.206;2022-08-01T02:50:42;12.10;99.90
8684;DHT22;4379;59.744;18.206;2022-08-01T02:53:11;12.10;99.90
8684;DHT22;4379;59.744;18.206;2022-08-01T02:55:41;12.20;99.90
8684;DHT22;4379;59.744;18.206;2022-08-01T02:58:10;12.30;99.90
8684;DHT22;4379;59.744;18.206;2022-08-01T03:00:40;12.20;99.90
8684;DHT22;4379;59.744;18.206;2022-08-01T03:03:10;12.40;99.90
8684;DHT22;4379;59.744;18.206;2022-08-01T03:05:38;12.40;99.90
8684;DHT22;4379;59.744;18.206;2022-08-01T03:08:10;12.50;99.90
8684;DHT22;4379;59.744;18.206;2022-08-01T03:10:42;12.50;99.90
8684;DHT22;4379;59.744;18.206;2022-08-01T03:13:13;12.60;99.90
8684;DHT22;4379;59.744;18.206;2022-08-01T03:15:43;12.60;99.90
8684;DHT22;4379;59.744;18.206;2022-08-01T03:18:12;12.70;99.90
8684;DHT22;4379;59.744;18.206;2022-08-01T03:20:41;12.80;99.90
8684;DHT22;4379;59.744;18.206;2022-08-01T03:23:11;12.80;99.90
8684;DHT22;4379;59.744;18.206;2022-08-01T03:25:41;12.80;99.90
8684;DHT22;4379;59.744;18.206;2022-08-01T03:28:13;12.90;99.90
8684;DHT22;4379;59.744;18.206;2022-08-01T03:30:42;12.90;99.90
8684;DHT22;4379;59.744;18.206;2022-08-01T03:33:10;12.90;99.90
8684;DHT22;4379;59.744;18.206;2022-08-01T03:35:46;12.90;99.90
8684;DHT22;4379;59.744;18.206;2022-08-01T03:38:18;13.00;99.90
8684;DHT22;4379;59.744;18.206;2022-08-01T03:41:39;13.10;99.90
8684;DHT22;4379;59.744;18.206;2022-08-01T03:44:07;13.20;99.90
8684;DHT22;4379;59.744;18.206;2022-08-01T03:46:45;13.30;99.90
8684;DHT22;4379;59.744;18.206;2022-08-01T03:49:19;13.30;99.90
8684;DHT22;4379;59.744;18.206;2022-08-01T03:51:48;13.30;99.90
8684;DHT22;4379;59.744;18.206;2022-08-01T03:54:21;13.40;99.90
8684;DHT22;4379;59.744;18.206;2022-08-01T03:56:50;13.30;99.90
8684;DHT22;4379;59.744;18.206;2022-08-01T03:59:19;13.40;99.90
8684;DHT22;4379;59.744;18.206;2022-08-01T04:01:47;13.60;99.90
8684;DHT22;4379;59.744;18.206;2022-08-01T04:04:16;13.50;99.90
8684;DHT22;4379;59.744;18.206;2022-08-01T04:06:43;13.60;99.90
8684;DHT22;4379;59.744;18.206;2022-08-01T04:09:12;13.60;99.90
8684;DHT22;4379;59.744;18.206;2022-08-01T04:11:40;13.50;99.90
8684;DHT22;4379;59.744;18.206;2022-08-01T04:14:10;13.60;99.90
8684;DHT22;4379;59.744;18.206;2022-08-01T04:16:38;13.60;99.90
8684;DHT22;4379;59.744;18.206;2022-08-01T04:19:06;13.70;99.90
8684;DHT22;4379;59.744;18.206;2022-08-01T04:21:36;13.70;99.90
8684;DHT22;4379;59.744;18.206;2022-08-01T04:24:17;13.80;99.90
8684;DHT22;4379;59.744;18.206;2022-08-01T04:26:46;13.90;99.90
8684;DHT22;4379;59.744;18.206;2022-08-01T04:29:16;14.20;99.90
8684;DHT22;4379;59.744;18.206;2022-08-01T04:31:46;14.30;99.90
8684;DHT22;4379;59.744;18.206;2022-08-01T04:34:17;14.50;99.90
8684;DHT22;4379;59.744;18.206;2022-08-01T04:36:48;14.70;99.90
8684;DHT22;4379;59.744;18.206;2022-08-01T04:39:17;14.90;99.90
8684;DHT22;4379;59.744;18.206;2022-08-01T04:41:47;15.20;99.90
8684;DHT22;4379;59.744;18.206;2022-08-01T04:44:15;15.60;99.90
8684;DHT22;4379;59.744;18.206;2022-08-01T04:46:43;16.00;99.90
8684;DHT22;4379;59.744;18.206;2022-08-01T04:49:13;15.90;99.90
8684;DHT22;4379;59.744;18.206;2022-08-01T04:51:53;15.90;99.90
8684;DHT22;4379;59.744;18.206;2022-08-01T04:54:32;16.00;99.90
8684;DHT22;4379;59.744;18.206;2022-08-01T04:57:00;16.30;99.90
8684;DHT22;4379;59.744;18.206;2022-08-01T04:59:28;17.50;99.90
8684;DHT22;4379;59.744;18.206;2022-08-01T05:02:10;18.70;99.90
8684;DHT22;4379;59.744;18.206;2022-08-01T05:04:38;19.60;99.90
8684;DHT22;4379;59.744;18.206;2022-08-01T05:07:07;19.70;99.90
8684;DHT22;4379;59.744;18.206;2022-08-01T05:09:35;19.50;99.90
8684;DHT22;4379;59.744;18.206;2022-08-01T05:12:06;19.20;99.90
8684;DHT22;4379;59.744;18.206;2022-08-01T05:14:35;19.20;99.90
8684;DHT22;4379;59.744;18.206;2022-08-01T05:17:03;19.30;99.90
8684;DHT22;4379;59.744;18.206;2022-08-01T05:19:31;19.20;99.90
8684;DHT22;4379;59.744;18.206;2022-08-01T05:22:00;19.40;99.90
8684;DHT22;4379;59.744;18.206;2022-08-01T05:24:28;19.80;99.90
8684;DHT22;4379;59.744;18.206;2022-08-01T05:26:57;19.80;99.90
8684;DHT22;4379;59.744;18.206;2022-08-01T05:29:25;20.60;99.90
8684;DHT22;4379;59.744;18.206;2022-08-01T05:31:53;23.40;99.90
8684;DHT22;4379;59.744;18.206;2022-08-01T05:34:21;25.20;99.90
8684;DHT22;4379;59.744;18.206;2022-08-01T05:36:48;25.40;99.90
8684;DHT22;4379;59.744;18.206;2022-08-01T05:39:22;28.40;99.90
8684;DHT22;4379;59.744;18.206;2022-08-01T05:41:50;30.50;99.90
8684;DHT22;4379;59.744;18.206;2022-08-01T05:44:18;30.70;99.90
8684;DHT22;4379;59.744;18.206;2022-08-01T05:46:46;31.10;99.90
8684;DHT22;4379;59.744;18.206;2022-08-01T05:49:14;31.90;99.90
8684;DHT22;4379;59.744;18.206;2022-08-01T05:51:42;33.80;99.90
8684;DHT22;4379;59.744;18.206;2022-08-01T05:54:09;31.40;99.90
8684;DHT22;4379;59.744;18.206;2022-08-01T05:56:37;31.30;99.90
8684;DHT22;4379;59.744;18.206;2022-08-01T05:59:04;30.40;99.90
8684;DHT22;4379;59.744;18.206;2022-08-01T06:01:32;31.10;99.90
8684;DHT22;4379;59.744;18.206;2022-08-01T06:03:59;31.20;99.90
8684;DHT22;4379;59.744;18.206;2022-08-01T06:06:27;29.00;99.90
8684;DHT22;4379;59.744;18.206;2022-08-01T06:08:54;29.70;99.90
8684;DHT22;4379;59.744;18.206;2022-08-01T06:11:21;31.20;99.90
8684;DHT22;4379;59.744;18.206;2022-08-01T06:13:49;31.10;99.90
8684;DHT22;4379;59.744;18.206;2022-08-01T06:16:16;31.70;99.90
8684;DHT22;4379;59.744;18.206;2022-08-01T06:18:44;33.10;99.90
8684;DHT22;4379;59.744;18.206;2022-08-01T06:21:11;31.00;99.90
8684;DHT22;4379;59.744;18.206;2022-08-01T06:23:39;31.00;99.90
8684;DHT22;4379;59.744;18.206;2022-08-01T06:26:08;29.90;99.90
8684;DHT22;4379;59.744;18.206;2022-08-01T06:28:37;27.20;99.90
8684;DHT22;4379;59.744;18.206;2022-08-01T06:31:05;26.80;99.90
8684;DHT22;4379;59.744;18.206;2022-08-01T06:33:32;24.90;99.90
8684;DHT22;4379;59.744;18.206;2022-08-01T06:36:00;24.60;99.90
8684;DHT22;4379;59.744;18.206;2022-08-01T06:38:28;23.90;99.90
8684;DHT22;4379;59.744;18.206;2022-08-01T06:40:55;23.40;99.90
8684;DHT22;4379;59.744;18.206;2022-08-01T06:43:23;23.00;99.90
8684;DHT22;4379;59.744;18.206;2022-08-01T06:45:50;23.30;99.90
8684;DHT22;4379;59.744;18.206;2022-08-01T06:48:18;24.00;99.90
8684;DHT22;4379;59.744;18.206;2022-08-01T06:50:45;24.10;99.90
8684;DHT22;4379;59.744;18.206;2022-08-01T06:53:13;24.00;99.90
8684;DHT22;4379;59.744;18.206;2022-08-01T06:55:40;24.30;99.90
8684;DHT22;4379;59.744;18.206;2022-08-01T06:58:07;23.70;99.90
8684;DHT22;4379;59.744;18.206;2022-08-01T07:00:35;23.80;99.90
8684;DHT22;4379;59.744;18.206;2022-08-01T07:03:14;23.20;99.90
8684;DHT22;4379;59.744;18.206;2022-08-01T07:05:41;22.60;99.90
8684;DHT22;4379;59.744;18.206;2022-08-01T07:08:10;22.30;99.90
8684;DHT22;4379;59.744;18.206;2022-08-01T07:10:37;22.10;99.90
8684;DHT22;4379;59.744;18.206;2022-08-01T07:13:05;22.10;99.90
8684;DHT22;4379;59.744;18.206;2022-08-01T07:15:33;22.30;99.90
8684;DHT22;4379;59.744;18.206;2022-08-01T07:18:00;22.40;99.90
8684;DHT22;4379;59.744;18.206;2022-08-01T07:20:31;22.90;99.90
8684;DHT22;4379;59.744;18.206;2022-08-01T07:23:08;23.20;99.90
8684;DHT22;4379;59.744;18.206;2022-08-01T07:25:38;23.70;99.90
8684;DHT22;4379;59.744;18.206;2022-08-01T07:28:16;23.10;99.90
8684;DHT22;4379;59.744;18.206;2022-08-01T07:30:44;22.70;99.90
8684;DHT22;4379;59.744;18.206;2022-08-01T07:33:11;22.90;99.90
8684;DHT22;4379;59.744;18.206;2022-08-01T07:35:40;22.90;99.90
8684;DHT22;4379;59.744;18.206;2022-08-01T07:38:07;22.70;99.90
8684;DHT22;4379;59.744;18.206;2022-08-01T07:40:38;22.80;99.90
8684;DHT22;4379;59.744;18.206;2022-08-01T07:43:06;22.50;99.90
8684;DHT22;4379;59.744;18.206;2022-08-01T07:45:35;22.70;99.90
8684;DHT22;4379;59.744;18.206;2022-08-01T07:48:06;22.80;99.90
8684;DHT22;4379;59.744;18.206;2022-08-01T07:50:35;22.70;99.90
8684;DHT22;4379;59.744;18.206;2022-08-01T07:53:02;22.70;99.90
8684;DHT22;4379;59.744;18.206;2022-08-01T07:55:30;22.20;99.90
8684;DHT22;4379;59.744;18.206;2022-08-01T07:57:58;22.00;99.90
8684;DHT22;4379;59.744;18.206;2022-08-01T08:00:25;22.30;99.90
8684;DHT22;4379;59.744;18.206;2022-08-01T08:02:54;22.50;99.90
8684;DHT22;4379;59.744;18.206;2022-08-01T08:05:28;23.10;99.90
8684;DHT22;4379;59.744;18.206;2022-08-01T08:08:17;23.90;99.90
8684;DHT22;4379;59.744;18.206;2022-08-01T08:10:56;24.30;99.90
8684;DHT22;4379;59.744;18.206;2022-08-01T08:13:24;24.80;99.90
8684;DHT22;4379;59.744;18.206;2022-08-01T08:15:52;24.80;99.90
8684;DHT22;4379;59.744;18.206;2022-08-01T08:18:20;24.40;99.90
8684;DHT22;4379;59.744;18.206;2022-08-01T08:20:47;24.10;99.90
8684;DHT22;4379;59.744;18.206;2022-08-01T08:23:16;23.90;99.90
8684;DHT22;4379;59.744;18.206;2022-08-01T08:26:10;23.80;99.90
8684;DHT22;4379;59.744;18.206;2022-08-01T08:28:50;25.00;99.90
8684;DHT22;4379;59.744;18.206;2022-08-01T08:31:17;25.20;99.90
8684;DHT22;4379;59.744;18.206;2022-08-01T08:34:04;24.50;99.90
8684;DHT22;4379;59.744;18.206;2022-08-01T08:36:32;24.60;99.90
8684;DHT22;4379;59.744;18.206;2022-08-01T08:39:00;25.20;99.90
8684;DHT22;4379;59.744;18.206;2022-08-01T08:41:30;25.70;99.90
8684;DHT22;4379;59.744;18.206;2022-08-01T08:44:06;25.80;99.90
8684;DHT22;4379;59.744;18.206;2022-08-01T08:46:45;26.10;99.90
8684;DHT22;4379;59.744;18.206;2022-08-01T08:49:17;25.70;99.90
8684;DHT22;4379;59.744;18.206;2022-08-01T08:51:47;24.50;99.90
8684;DHT22;4379;59.744;18.206;2022-08-01T08:54:16;25.20;99.90
8684;DHT22;4379;59.744;18.206;2022-08-01T08:56:46;25.50;99.90
8684;DHT22;4379;59.744;18.206;2022-08-01T08:59:14;25.90;99.90
8684;DHT22;4379;59.744;18.206;2022-08-01T09:01:42;25.90;99.90
8684;DHT22;4379;59.744;18.206;2022-08-01T09:04:10;25.90;99.90
8684;DHT22;4379;59.744;18.206;2022-08-01T09:06:38;26.70;99.90
8684;DHT22;4379;59.744;18.206;2022-08-01T09:09:07;26.90;99.90
8684;DHT22;4379;59.744;18.206;2022-08-01T09:11:36;25.70;99.90
8684;DHT22;4379;59.744;18.206;2022-08-01T09:14:12;26.20;99.90
8684;DHT22;4379;59.744;18.206;2022-08-01T09:16:43;25.80;99.90
8684;DHT22;4379;59.744;18.206;2022-08-01T09:19:18;25.90;99.90
8684;DHT22;4379;59.744;18.206;2022-08-01T09:22:08;26.30;99.90
8684;DHT22;4379;59.744;18.206;2022-08-01T09:24:36;26.50;99.90
8684;DHT22;4379;59.744;18.206;2022-08-01T09:27:18;26.50;99.90
8684;DHT22;4379;59.744;18.206;2022-08-01T09:29:48;26.70;99.90
8684;DHT22;4379;59.744;18.206;2022-08-01T09:32:29;27.30;99.90
8684;DHT22;4379;59.744;18.206;2022-08-01T09:35:31;27.20;99.90
8684;DHT22;4379;59.744;18.206;2022-08-01T09:38:17;26.70;99.90
8684;DHT22;4379;59.744;18.206;2022-08-01T09:41:00;26.60;99.90
8684;DHT22;4379;59.744;18.206;2022-08-01T09:43:30;26.30;99.90
8684;DHT22;4379;59.744;18.206;2022-08-01T09:45:59;25.80;99.90
8684;DHT22;4379;59.744;18.206;2022-08-01T09:48:27;25.90;99.90
8684;DHT22;4379;59.744;18.206;2022-08-01T09:50:57;26.00;99.90
8684;DHT22;4379;59.744;18.206;2022-08-01T09:53:45;26.00;99.90
8684;DHT22;4379;59.744;18.206;2022-08-01T09:56:17;26.20;99.90
8684;DHT22;4379;59.744;18.206;2022-08-01T09:58:57;26.40;99.90
8684;DHT22;4379;59.744;18.206;2022-08-01T10:01:44;26.60;99.90
8684;DHT22;4379;59.744;18.206;2022-08-01T10:04:15;26.20;99.90
8684;DHT22;4379;59.744;18.206;2022-08-01T10:06:46;26.20;99.90
8684;DHT22;4379;59.744;18.206;2022-08-01T10:09:26;26.40;99.90
8684;DHT22;4379;59.744;18.206;2022-08-01T10:12:07;26.60;99.90
8684;DHT22;4379;59.744;18.206;2022-08-01T10:14:43;26.00;99.90
8684;DHT22;4379;59.744;18.206;2022-08-01T10:17:16;26.10;99.90
8684;DHT22;4379;59.744;18.206;2022-08-01T10:19:46;26.50;99.90
8684;DHT22;4379;59.744;18.206;2022-08-01T10:22:18;25.60;99.90
8684;DHT22;4379;59.744;18.206;2022-08-01T10:24:48;25.60;99.90
8684;DHT22;4379;59.744;18.206;2022-08-01T10:27:18;26.00;99.90
8684;DHT22;4379;59.744;18.206;2022-08-01T10:30:05;26.30;99.90
8684;DHT22;4379;59.744;18.206;2022-08-01T10:32:50;26.30;99.90
8684;DHT22;4379;59.744;18.206;2022-08-01T10:35:21;26.00;99.90
8684;DHT22;4379;59.744;18.206;2022-08-01T10:38:10;25.70;99.90
8684;DHT22;4379;59.744;18.206;2022-08-01T10:40:44;25.20;99.90
8684;DHT22;4379;59.744;18.206;2022-08-01T10:43:12;24.70;99.90
8684;DHT22;4379;59.744;18.206;2022-08-01T10:45:48;25.00;99.90
8684;DHT22;4379;59.744;18.206;2022-08-01T10:50:53;25.40;99.90
8684;DHT22;4379;59.744;18.206;2022-08-01T10:53:24;25.40;99.90
8684;DHT22;4379;59.744;18.206;2022-08-01T10:55:59;25.10;99.90
8684;DHT22;4379;59.744;18.206;2022-08-01T10:58:37;24.80;99.90
8684;DHT22;4379;59.744;18.206;2022-08-01T11:01:29;24.70;99.90
8684;DHT22;4379;59.744;18.206;2022-08-01T11:04:13;24.50;99.90
8684;DHT22;4379;59.744;18.206;2022-08-01T11:07:05;24.50;99.90
8684;DHT22;4379;59.744;18.206;2022-08-01T11:09:44;24.60;99.90
8684;DHT22;4379;59.744;18.206;2022-08-01T11:12:18;24.60;99.90
8684;DHT22;4379;59.744;18.206;2022-08-01T11:17:38;25.40;99.90
8684;DHT22;4379;59.744;18.206;2022-08-01T11:20:22;26.30;99.90
8684;DHT22;4379;59.744;18.206;2022-08-01T11:28:25;25.70;99.90
8684;DHT22;4379;59.744;18.206;2022-08-01T11:39:10;24.60;99.90
8684;DHT22;4379;59.744;18.206;2022-08-01T11:41:40;24.50;99.90
8684;DHT22;4379;59.744;18.206;2022-08-01T11:44:19;24.50;99.90
8684;DHT22;4379;59.744;18.206;2022-08-01T11:47:04;24.20;99.90
8684;DHT22;4379;59.744;18.206;2022-08-01T11:52:29;23.90;99.90
8684;DHT22;4379;59.744;18.206;2022-08-01T11:57:36;24.00;99.90
8684;DHT22;4379;59.744;18.206;2022-08-01T12:00:12;24.10;99.90
8684;DHT22;4379;59.744;18.206;2022-08-01T12:02:43;24.60;99.90
8684;DHT22;4379;59.744;18.206;2022-08-01T12:05:13;24.30;99.90
8684;DHT22;4379;59.744;18.206;2022-08-01T12:07:43;24.30;99.90
8684;DHT22;4379;59.744;18.206;2022-08-01T12:10:13;24.60;99.90
8684;DHT22;4379;59.744;18.206;2022-08-01T12:13:03;24.40;99.90
8684;DHT22;4379;59.744;18.206;2022-08-01T12:15:33;24.70;99.90
8684;DHT22;4379;59.744;18.206;2022-08-01T12:18:03;24.70;99.90
8684;DHT22;4379;59.744;18.206;2022-08-01T12:20:33;25.10;99.90
8684;DHT22;4379;59.744;18.206;2022-08-01T12:23:03;24.40;99.90
8684;DHT22;4379;59.744;18.206;2022-08-01T12:25:33;23.60;99.90
8684;DHT22;4379;59.744;18.206;2022-08-01T12:28:06;23.50;99.90
8684;DHT22;4379;59.744;18.206;2022-08-01T12:30:35;22.80;99.90
8684;DHT22;4379;59.744;18.206;2022-08-01T12:33:06;22.50;99.90
8684;DHT22;4379;59.744;18.206;2022-08-01T12:35:34;22.10;99.90
8684;DHT22;4379;59.744;18.206;2022-08-01T12:38:13;22.10;99.90
8684;DHT22;4379;59.744;18.206;2022-08-01T12:40:43;22.20;99.90
8684;DHT22;4379;59.744;18.206;2022-08-01T12:43:16;22.20;99.90
8684;DHT22;4379;59.744;18.206;2022-08-01T12:45:56;21.70;99.90
8684;DHT22;4379;59.744;18.206;2022-08-01T12:48:25;21.70;99.90
8684;DHT22;4379;59.744;18.206;2022-08-01T12:50:54;21.40;99.90
8684;DHT22;4379;59.744;18.206;2022-08-01T12:53:25;21.30;99.90
8684;DHT22;4379;59.744;18.206;2022-08-01T12:56:07;21.10;99.90
8684;DHT22;4379;59.744;18.206;2022-08-01T12:58:35;21.10;99.90
8684;DHT22;4379;59.744;18.206;2022-08-01T13:01:05;20.80;99.90
8684;DHT22;4379;59.744;18.206;2022-08-01T13:03:33;20.80;99.90
8684;DHT22;4379;59.744;18.206;2022-08-01T13:06:01;20.80;99.90
8684;DHT22;4379;59.744;18.206;2022-08-01T13:08:36;20.70;99.90
8684;DHT22;4379;59.744;18.206;2022-08-01T13:11:06;20.70;99.90
8684;DHT22;4379;59.744;18.206;2022-08-01T13:13:50;20.60;99.90
8684;DHT22;4379;59.744;18.206;2022-08-01T13:16:21;20.30;99.90
8684;DHT22;4379;59.744;18.206;2022-08-01T13:22:49;19.60;99.90
8684;DHT22;4379;59.744;18.206;2022-08-01T13:25:56;19.20;99.90
8684;DHT22;4379;59.744;18.206;2022-08-01T13:28:27;19.10;99.90
8684;DHT22;4379;59.744;18.206;2022-08-01T13:31:01;18.80;99.90
8684;DHT22;4379;59.744;18.206;2022-08-01T13:33:44;18.80;99.90
8684;DHT22;4379;59.744;18.206;2022-08-01T13:36:20;18.80;99.90
8684;DHT22;4379;59.744;18.206;2022-08-01T13:38:54;18.80;99.90
8684;DHT22;4379;59.744;18.206;2022-08-01T13:41:41;18.80;99.90
8684;DHT22;4379;59.744;18.206;2022-08-01T13:44:09;18.90;99.90
8684;DHT22;4379;59.744;18.206;2022-08-01T13:46:38;19.20;99.90
8684;DHT22;4379;59.744;18.206;2022-08-01T13:49:15;19.30;99.90
8684;DHT22;4379;59.744;18.206;2022-08-01T13:51:44;19.20;99.90
8684;DHT22;4379;59.744;18.206;2022-08-01T13:54:16;18.90;99.90
8684;DHT22;4379;59.744;18.206;2022-08-01T13:56:55;18.80;99.90
8684;DHT22;4379;59.744;18.206;2022-08-01T13:59:23;19.10;99.90
8684;DHT22;4379;59.744;18.206;2022-08-01T14:01:51;19.40;99.90
8684;DHT22;4379;59.744;18.206;2022-08-01T14:04:18;19.80;99.90
8684;DHT22;4379;59.744;18.206;2022-08-01T14:06:46;19.90;99.90
8684;DHT22;4379;59.744;18.206;2022-08-01T14:09:14;20.10;99.90
8684;DHT22;4379;59.744;18.206;2022-08-01T14:11:51;20.10;99.90
8684;DHT22;4379;59.744;18.206;2022-08-01T14:14:19;19.90;99.90
8684;DHT22;4379;59.744;18.206;2022-08-01T14:16:47;19.70;99.90
8684;DHT22;4379;59.744;18.206;2022-08-01T14:19:14;19.70;99.90
8684;DHT22;4379;59.744;18.206;2022-08-01T14:21:48;19.60;99.90
8684;DHT22;4379;59.744;18.206;2022-08-01T14:24:16;19.80;99.90
8684;DHT22;4379;59.744;18.206;2022-08-01T14:26:45;20.10;99.90
8684;DHT22;4379;59.744;18.206;2022-08-01T14:29:13;20.30;99.90
8684;DHT22;4379;59.744;18.206;2022-08-01T14:31:40;20.70;99.90
8684;DHT22;4379;59.744;18.206;2022-08-01T14:34:08;21.10;99.90
8684;DHT22;4379;59.744;18.206;2022-08-01T14:36:36;21.30;99.90
8684;DHT22;4379;59.744;18.206;2022-08-01T14:39:05;21.50;99.90
8684;DHT22;4379;59.744;18.206;2022-08-01T14:41:37;21.30;99.90
8684;DHT22;4379;59.744;18.206;2022-08-01T14:44:04;21.20;99.90
8684;DHT22;4379;59.744;18.206;2022-08-01T14:46:32;21.20;99.90
8684;DHT22;4379;59.744;18.206;2022-08-01T14:49:00;21.40;99.90
8684;DHT22;4379;59.744;18.206;2022-08-01T14:51:29;21.20;99.90
8684;DHT22;4379;59.744;18.206;2022-08-01T14:54:00;21.40;99.90
8684;DHT22;4379;59.744;18.206;2022-08-01T14:56:29;21.20;99.90
8684;DHT22;4379;59.744;18.206;2022-08-01T14:58:57;21.10;99.90
8684;DHT22;4379;59.744;18.206;2022-08-01T15:01:25;20.90;99.90
8684;DHT22;4379;59.744;18.206;2022-08-01T15:03:53;20.80;99.90
8684;DHT22;4379;59.744;18.206;2022-08-01T15:06:20;20.50;99.90
8684;DHT22;4379;59.744;18.206;2022-08-01T15:08:48;20.50;99.90
8684;DHT22;4379;59.744;18.206;2022-08-01T15:11:15;20.50;99.90
8684;DHT22;4379;59.744;18.206;2022-08-01T15:13:43;20.30;99.90
8684;DHT22;4379;59.744;18.206;2022-08-01T15:16:11;20.20;99.90
8684;DHT22;4379;59.744;18.206;2022-08-01T15:18:38;20.30;99.90
8684;DHT22;4379;59.744;18.206;2022-08-01T15:21:06;20.30;99.90
8684;DHT22;4379;59.744;18.206;2022-08-01T15:23:33;20.50;99.90
8684;DHT22;4379;59.744;18.206;2022-08-01T15:26:01;20.50;99.90
8684;DHT22;4379;59.744;18.206;2022-08-01T15:28:28;20.50;99.90
8684;DHT22;4379;59.744;18.206;2022-08-01T15:30:56;20.20;99.90
8684;DHT22;4379;59.744;18.206;2022-08-01T15:33:26;20.10;99.90
8684;DHT22;4379;59.744;18.206;2022-08-01T15:35:53;20.10;99.90
8684;DHT22;4379;59.744;18.206;2022-08-01T15:38:22;20.30;99.90
8684;DHT22;4379;59.744;18.206;2022-08-01T15:40:50;20.20;99.90
8684;DHT22;4379;59.744;18.206;2022-08-01T15:43:17;20.30;99.90
8684;DHT22;4379;59.744;18.206;2022-08-01T15:45:46;20.30;99.90
8684;DHT22;4379;59.744;18.206;2022-08-01T15:48:16;20.20;99.90
8684;DHT22;4379;59.744;18.206;2022-08-01T15:50:43;20.20;99.90
8684;DHT22;4379;59.744;18.206;2022-08-01T15:53:11;20.10;99.90
8684;DHT22;4379;59.744;18.206;2022-08-01T15:55:39;20.20;99.90
8684;DHT22;4379;59.744;18.206;2022-08-01T15:58:06;20.10;99.90
8684;DHT22;4379;59.744;18.206;2022-08-01T16:00:38;20.20;99.90
8684;DHT22;4379;59.744;18.206;2022-08-01T16:03:06;20.40;99.90
8684;DHT22;4379;59.744;18.206;2022-08-01T16:05:35;20.60;99.90
8684;DHT22;4379;59.744;18.206;2022-08-01T16:08:12;20.60;99.90
8684;DHT22;4379;59.744;18.206;2022-08-01T16:10:40;20.70;99.90
8684;DHT22;4379;59.744;18.206;2022-08-01T16:13:08;20.70;99.90
8684;DHT22;4379;59.744;18.206;2022-08-01T16:15:37;20.80;99.90
8684;DHT22;4379;59.744;18.206;2022-08-01T16:18:07;20.90;99.90
8684;DHT22;4379;59.744;18.206;2022-08-01T16:20:35;20.90;99.90
8684;DHT22;4379;59.744;18.206;2022-08-01T16:23:11;20.90;99.90
8684;DHT22;4379;59.744;18.206;2022-08-01T16:25:38;21.00;99.90
8684;DHT22;4379;59.744;18.206;2022-08-01T16:28:06;21.10;99.90
8684;DHT22;4379;59.744;18.206;2022-08-01T16:30:35;21.40;99.90
8684;DHT22;4379;59.744;18.206;2022-08-01T16:33:06;21.40;99.90
8684;DHT22;4379;59.744;18.206;2022-08-01T16:35:39;21.50;99.90
8684;DHT22;4379;59.744;18.206;2022-08-01T16:38:11;21.50;99.90
8684;DHT22;4379;59.744;18.206;2022-08-01T16:40:39;21.70;99.90
8684;DHT22;4379;59.744;18.206;2022-08-01T16:43:14;21.90;99.90
8684;DHT22;4379;59.744;18.206;2022-08-01T16:45:42;22.00;99.90
8684;DHT22;4379;59.744;18.206;2022-08-01T16:48:11;22.00;99.90
8684;DHT22;4379;59.744;18.206;2022-08-01T16:50:39;21.90;99.90
8684;DHT22;4379;59.744;18.206;2022-08-01T16:53:06;21.80;99.90